sensor_id;sensor_type;location;lat;lon;timestamp;pressure;altitude;pressure_sealevel;temperature;humidity
38806;BME280;25635;51.146;17.162;2023-09-07T00:00:38;100976.65;;;12.44;76.51
38806;BME280;25635;51.146;17.162;2023-09-07T00:03:25;100978.40;;;12.41;77.09
38806;BME280;25635;51.146;17.162;2023-09-07T00:05:52;100981.39;;;12.38;77.55
38806;BME280;25635;51.146;17.162;2023-09-07T00:08:19;100984.02;;;12.35;77.41
38806;BME280;25635;51.146;17.162;2023-09-07T00:10:45;100984.71;;;12.33;77.88
38806;BME280;25635;51.146;17.162;2023-09-07T00:13:12;100986.30;;;12.31;77.99
38806;BME280;25635;51.146;17.162;2023-09-07T00:15:38;100981.25;;;12.29;77.64
38806;BME280;25635;51.146;17.162;2023-09-07T00:18:05;100984.05;;;12.27;77.46
38806;BME280;25635;51.146;17.162;2023-09-07T00:20:32;100982.98;;;12.27;77.40
38806;BME280;25635;51.146;17.162;2023-09-07T00:23:00;100988.23;;;12.29;77.69
38806;BME280;25635;51.146;17.162;2023-09-07T00:25:27;100991.02;;;12.30;77.45
38806;BME280;25635;51.146;17.162;2023-09-07T00:27:53;100985.95;;;12.31;77.06
38806;BME280;25635;51.146;17.162;2023-09-07T00:30:20;100988.23;;;12.28;76.74
38806;BME280;25635;51.146;17.162;2023-09-07T00:32:46;100985.96;;;12.28;76.51
38806;BME280;25635;51.146;17.162;2023-09-07T00:35:12;100985.98;;;12.24;76.37
38806;BME280;25635;51.146;17.162;2023-09-07T00:37:39;100982.83;;;12.22;76.30
38806;BME280;25635;51.146;17.162;2023-09-07T00:40:06;100983.88;;;12.20;76.38
38806;BME280;25635;51.146;17.162;2023-09-07T00:42:35;100979.70;;;12.17;76.55
38806;BME280;25635;51.146;17.162;2023-09-07T00:45:02;100982.48;;;12.14;76.51
38806;BME280;25635;51.146;17.162;2023-09-07T00:47:29;100982.15;;;12.13;76.47
38806;BME280;25635;51.146;17.162;2023-09-07T00:49:56;100978.48;;;12.11;76.56
38806;BME280;25635;51.146;17.162;2023-09-07T00:52:22;100974.81;;;12.12;76.43
38806;BME280;25635;51.146;17.162;2023-09-07T00:54:49;100973.59;;;12.12;76.11
38806;BME280;25635;51.146;17.162;2023-09-07T00:57:15;100970.61;;;12.09;76.06
38806;BME280;25635;51.146;17.162;2023-09-07T00:59:42;100970.11;;;12.05;75.96
38806;BME280;25635;51.146;17.162;2023-09-07T01:02:09;100971.69;;;12.01;75.86
38806;BME280;25635;51.146;17.162;2023-09-07T01:04:35;100971.33;;;11.99;76.07
38806;BME280;25635;51.146;17.162;2023-09-07T01:09:37;100970.98;;;11.98;75.90
38806;BME280;25635;51.146;17.162;2023-09-07T01:12:06;100970.47;;;11.96;76.09
38806;BME280;25635;51.146;17.162;2023-09-07T01:14:37;100968.70;;;11.95;76.17
38806;BME280;25635;51.146;17.162;2023-09-07T01:17:03;100969.07;;;11.96;76.21
38806;BME280;25635;51.146;17.162;2023-09-07T01:19:31;100964.35;;;11.97;76.56
38806;BME280;25635;51.146;17.162;2023-09-07T01:21:57;100966.11;;;11.96;75.99
38806;BME280;25635;51.146;17.162;2023-09-07T01:24:23;100967.67;;;11.92;75.88
38806;BME280;25635;51.146;17.162;2023-09-07T01:26:50;100965.58;;;11.89;75.87
38806;BME280;25635;51.146;17.162;2023-09-07T01:29:17;100967.30;;;11.86;75.91
38806;BME280;25635;51.146;17.162;2023-09-07T01:31:43;100969.23;;;11.85;76.10
38806;BME280;25635;51.146;17.162;2023-09-07T01:34:10;100969.73;;;11.83;76.05
38806;BME280;25635;51.146;17.162;2023-09-07T01:36:36;100970.45;;;11.77;75.75
38806;BME280;25635;51.146;17.162;2023-09-07T01:39:03;100970.46;;;11.72;75.84
38806;BME280;25635;51.146;17.162;2023-09-07T01:41:32;100968.70;;;11.71;76.93
38806;BME280;25635;51.146;17.162;2023-09-07T01:43:59;100970.10;;;11.71;77.15
38806;BME280;25635;51.146;17.162;2023-09-07T01:46:26;100968.19;;;11.69;76.87
38806;BME280;25635;51.146;17.162;2023-09-07T01:48:52;100968.89;;;11.66;76.73
38806;BME280;25635;51.146;17.162;2023-09-07T01:51:19;100970.45;;;11.63;76.64
38806;BME280;25635;51.146;17.162;2023-09-07T01:53:48;100972.55;;;11.57;76.38
38806;BME280;25635;51.146;17.162;2023-09-07T01:56:16;100973.42;;;11.51;76.45
38806;BME280;25635;51.146;17.162;2023-09-07T01:58:42;100976.21;;;11.47;76.77
38806;BME280;25635;51.146;17.162;2023-09-07T02:01:24;100977.96;;;11.45;76.58
38806;BME280;25635;51.146;17.162;2023-09-07T02:03:51;100977.95;;;11.40;76.78
38806;BME280;25635;51.146;17.162;2023-09-07T02:06:17;100979.69;;;11.34;76.60
38806;BME280;25635;51.146;17.162;2023-09-07T02:08:44;100979.34;;;11.28;76.83
38806;BME280;25635;51.146;17.162;2023-09-07T02:11:11;100983.69;;;11.22;77.37
38806;BME280;25635;51.146;17.162;2023-09-07T02:13:37;100981.77;;;11.18;77.81
38806;BME280;25635;51.146;17.162;2023-09-07T02:16:04;100981.58;;;11.12;77.50
38806;BME280;25635;51.146;17.162;2023-09-07T02:18:32;100982.79;;;11.10;77.63
38806;BME280;25635;51.146;17.162;2023-09-07T02:21:02;100980.52;;;11.09;77.63
38806;BME280;25635;51.146;17.162;2023-09-07T02:23:30;100978.77;;;11.10;77.92
38806;BME280;25635;51.146;17.162;2023-09-07T02:25:56;100980.00;;;11.11;77.70
38806;BME280;25635;51.146;17.162;2023-09-07T02:28:23;100982.61;;;11.10;77.56
38806;BME280;25635;51.146;17.162;2023-09-07T02:30:51;100983.48;;;11.07;77.45
38806;BME280;25635;51.146;17.162;2023-09-07T02:33:18;100984.34;;;11.04;77.49
38806;BME280;25635;51.146;17.162;2023-09-07T02:35:44;100983.64;;;11.02;77.39
38806;BME280;25635;51.146;17.162;2023-09-07T02:38:11;100979.80;;;10.97;77.30
38806;BME280;25635;51.146;17.162;2023-09-07T02:40:40;100983.45;;;10.93;77.31
38806;BME280;25635;51.146;17.162;2023-09-07T02:43:09;100982.72;;;10.88;77.32
38806;BME280;25635;51.146;17.162;2023-09-07T02:45:35;100984.64;;;10.84;77.41
38806;BME280;25635;51.146;17.162;2023-09-07T02:48:02;100982.17;;;10.80;77.45
38806;BME280;25635;51.146;17.162;2023-09-07T02:50:30;100984.42;;;10.77;77.62
38806;BME280;25635;51.146;17.162;2023-09-07T02:52:56;100986.00;;;10.76;77.55
38806;BME280;25635;51.146;17.162;2023-09-07T02:55:23;100983.90;;;10.73;77.37
38806;BME280;25635;51.146;17.162;2023-09-07T02:57:50;100984.59;;;10.70;77.39
38806;BME280;25635;51.146;17.162;2023-09-07T03:00:17;100984.23;;;10.67;77.48
38806;BME280;25635;51.146;17.162;2023-09-07T03:02:44;100985.80;;;10.67;77.63
38806;BME280;25635;51.146;17.162;2023-09-07T03:05:10;100987.20;;;10.68;77.88
38806;BME280;25635;51.146;17.162;2023-09-07T03:07:37;100984.94;;;10.70;77.90
38806;BME280;25635;51.146;17.162;2023-09-07T03:10:05;100983.02;;;10.71;77.86
38806;BME280;25635;51.146;17.162;2023-09-07T03:12:32;100982.31;;;10.70;77.52
38806;BME280;25635;51.146;17.162;2023-09-07T03:14:58;100984.23;;;10.69;77.43
38806;BME280;25635;51.146;17.162;2023-09-07T03:17:29;100986.15;;;10.69;77.44
38806;BME280;25635;51.146;17.162;2023-09-07T03:19:56;100988.61;;;10.69;78.43
38806;BME280;25635;51.146;17.162;2023-09-07T03:22:23;100985.63;;;10.67;78.72
38806;BME280;25635;51.146;17.162;2023-09-07T03:24:52;100989.64;;;10.68;77.98
38806;BME280;25635;51.146;17.162;2023-09-07T03:27:18;100990.50;;;10.66;77.83
38806;BME280;25635;51.146;17.162;2023-09-07T03:29:49;100988.05;;;10.66;78.07
38806;BME280;25635;51.146;17.162;2023-09-07T03:32:17;100984.20;;;10.63;78.05
38806;BME280;25635;51.146;17.162;2023-09-07T03:34:44;100985.59;;;10.61;77.72
38806;BME280;25635;51.146;17.162;2023-09-07T03:37:11;100988.90;;;10.58;77.62
38806;BME280;25635;51.146;17.162;2023-09-07T03:39:37;100991.48;;;10.54;77.52
38806;BME280;25635;51.146;17.162;2023-09-07T03:42:04;100991.84;;;10.50;77.82
38806;BME280;25635;51.146;17.162;2023-09-07T03:44:30;100992.88;;;10.50;78.06
38806;BME280;25635;51.146;17.162;2023-09-07T03:46:57;100991.12;;;10.49;78.03
38806;BME280;25635;51.146;17.162;2023-09-07T03:49:24;100995.11;;;10.46;77.64
38806;BME280;25635;51.146;17.162;2023-09-07T03:51:50;100992.99;;;10.41;77.68
38806;BME280;25635;51.146;17.162;2023-09-07T03:54:17;100991.23;;;10.37;77.68
38806;BME280;25635;51.146;17.162;2023-09-07T03:56:44;100990.16;;;10.32;77.99
38806;BME280;25635;51.146;17.162;2023-09-07T03:59:10;100985.27;;;10.30;78.19
38806;BME280;25635;51.146;17.162;2023-09-07T04:01:37;100989.60;;;10.29;78.77
38806;BME280;25635;51.146;17.162;2023-09-07T04:04:04;100993.04;;;10.23;78.92
38806;BME280;25635;51.146;17.162;2023-09-07T04:06:30;100997.70;;;10.15;78.70
38806;BME280;25635;51.146;17.162;2023-09-07T04:08:57;100995.91;;;10.10;78.59
38806;BME280;25635;51.146;17.162;2023-09-07T04:11:23;100999.55;;;10.06;78.70
38806;BME280;25635;51.146;17.162;2023-09-07T04:13:50;101001.27;;;10.04;78.97
38806;BME280;25635;51.146;17.162;2023-09-07T04:16:16;101003.36;;;10.04;78.84
38806;BME280;25635;51.146;17.162;2023-09-07T04:18:43;101004.55;;;10.01;78.69
38806;BME280;25635;51.146;17.162;2023-09-07T04:21:10;101003.13;;;9.95;78.58
38806;BME280;25635;51.146;17.162;2023-09-07T04:23:37;101004.48;;;9.91;78.60
38806;BME280;25635;51.146;17.162;2023-09-07T04:26:09;101003.77;;;9.87;78.73
38806;BME280;25635;51.146;17.162;2023-09-07T04:28:36;101004.08;;;9.83;78.82
38806;BME280;25635;51.146;17.162;2023-09-07T04:31:03;101008.76;;;9.81;78.92
38806;BME280;25635;51.146;17.162;2023-09-07T04:33:30;101010.14;;;9.79;79.18
38806;BME280;25635;51.146;17.162;2023-09-07T04:36:05;101011.52;;;9.78;79.13
38806;BME280;25635;51.146;17.162;2023-09-07T04:38:32;101008.22;;;9.78;79.17
38806;BME280;25635;51.146;17.162;2023-09-07T04:41:11;101010.83;;;9.79;79.27
38806;BME280;25635;51.146;17.162;2023-09-07T04:43:38;101011.52;;;9.77;79.23
38806;BME280;25635;51.146;17.162;2023-09-07T04:46:11;101018.81;;;9.76;79.53
38806;BME280;25635;51.146;17.162;2023-09-07T04:48:38;101019.88;;;9.76;79.72
38806;BME280;25635;51.146;17.162;2023-09-07T04:51:07;101020.59;;;9.79;79.81
38806;BME280;25635;51.146;17.162;2023-09-07T04:53:35;101018.34;;;9.80;79.66
38806;BME280;25635;51.146;17.162;2023-09-07T04:56:05;101012.77;;;9.80;80.10
38806;BME280;25635;51.146;17.162;2023-09-07T04:58:32;101018.19;;;9.83;80.37
38806;BME280;25635;51.146;17.162;2023-09-07T05:01:02;101015.08;;;9.85;80.42
38806;BME280;25635;51.146;17.162;2023-09-07T05:03:29;101021.21;;;9.91;80.69
38806;BME280;25635;51.146;17.162;2023-09-07T05:05:56;101023.70;;;9.98;80.69
38806;BME280;25635;51.146;17.162;2023-09-07T05:08:23;101026.75;;;10.08;81.08
38806;BME280;25635;51.146;17.162;2023-09-07T05:10:58;101026.48;;;10.22;82.08
38806;BME280;25635;51.146;17.162;2023-09-07T05:13:25;101028.00;;;10.36;82.41
38806;BME280;25635;51.146;17.162;2023-09-07T05:15:53;101022.35;;;10.52;83.82
38806;BME280;25635;51.146;17.162;2023-09-07T05:18:20;101030.45;;;10.70;84.40
38806;BME280;25635;51.146;17.162;2023-09-07T05:20:46;101029.85;;;10.90;85.31
38806;BME280;25635;51.146;17.162;2023-09-07T05:23:18;101029.92;;;11.12;85.77
38806;BME280;25635;51.146;17.162;2023-09-07T05:25:45;101032.23;;;11.31;86.11
38806;BME280;25635;51.146;17.162;2023-09-07T05:28:15;101034.89;;;11.51;86.37
38806;BME280;25635;51.146;17.162;2023-09-07T05:30:42;101035.61;;;11.71;86.26
38806;BME280;25635;51.146;17.162;2023-09-07T05:33:10;101035.98;;;11.90;86.14
38806;BME280;25635;51.146;17.162;2023-09-07T05:35:36;101037.74;;;12.10;85.88
38806;BME280;25635;51.146;17.162;2023-09-07T05:38:04;101044.36;;;12.29;85.52
38806;BME280;25635;51.146;17.162;2023-09-07T05:40:33;101044.67;;;12.48;85.65
38806;BME280;25635;51.146;17.162;2023-09-07T05:43:00;101043.75;;;12.67;85.28
38806;BME280;25635;51.146;17.162;2023-09-07T05:45:26;101047.55;;;12.85;84.90
38806;BME280;25635;51.146;17.162;2023-09-07T05:47:53;101044.48;;;13.05;84.99
38806;BME280;25635;51.146;17.162;2023-09-07T05:50:19;101045.60;;;13.24;84.70
38806;BME280;25635;51.146;17.162;2023-09-07T05:52:46;101046.21;;;13.44;84.78
38806;BME280;25635;51.146;17.162;2023-09-07T05:55:12;101044.49;;;13.65;84.60
38806;BME280;25635;51.146;17.162;2023-09-07T05:57:39;101052.06;;;13.85;84.33
38806;BME280;25635;51.146;17.162;2023-09-07T06:00:05;101052.07;;;14.05;84.05
38806;BME280;25635;51.146;17.162;2023-09-07T06:02:32;101053.66;;;14.23;83.96
38806;BME280;25635;51.146;17.162;2023-09-07T06:04:59;101047.69;;;14.42;83.49
38806;BME280;25635;51.146;17.162;2023-09-07T06:07:25;101051.23;;;14.58;82.98
38806;BME280;25635;51.146;17.162;2023-09-07T06:09:52;101052.98;;;14.73;82.87
38806;BME280;25635;51.146;17.162;2023-09-07T06:12:18;101054.20;;;14.91;83.11
38806;BME280;25635;51.146;17.162;2023-09-07T06:14:46;101055.55;;;15.08;82.70
38806;BME280;25635;51.146;17.162;2023-09-07T06:17:12;101057.63;;;15.23;82.21
38806;BME280;25635;51.146;17.162;2023-09-07T06:19:39;101056.38;;;15.38;81.60
38806;BME280;25635;51.146;17.162;2023-09-07T06:22:06;101056.55;;;15.50;81.23
38806;BME280;25635;51.146;17.162;2023-09-07T06:24:33;101058.61;;;15.65;81.38
38806;BME280;25635;51.146;17.162;2023-09-07T06:26:59;101057.69;;;15.81;81.91
38806;BME280;25635;51.146;17.162;2023-09-07T06:29:26;101058.66;;;15.98;81.41
38806;BME280;25635;51.146;17.162;2023-09-07T06:31:53;101056.33;;;16.11;80.58
38806;BME280;25635;51.146;17.162;2023-09-07T06:34:19;101063.65;;;16.25;80.46
38806;BME280;25635;51.146;17.162;2023-09-07T06:36:46;101066.88;;;16.40;80.20
38806;BME280;25635;51.146;17.162;2023-09-07T06:39:13;101066.43;;;16.55;80.32
38806;BME280;25635;51.146;17.162;2023-09-07T06:41:39;101065.95;;;16.71;80.39
38806;BME280;25635;51.146;17.162;2023-09-07T06:44:06;101069.70;;;16.88;79.77
38806;BME280;25635;51.146;17.162;2023-09-07T06:46:32;101067.63;;;17.03;79.54
38806;BME280;25635;51.146;17.162;2023-09-07T06:48:59;101071.69;;;17.20;79.27
38806;BME280;25635;51.146;17.162;2023-09-07T06:51:25;101071.63;;;17.38;78.93
38806;BME280;25635;51.146;17.162;2023-09-07T06:53:52;101072.92;;;17.59;78.89
38806;BME280;25635;51.146;17.162;2023-09-07T06:56:18;101081.09;;;17.80;78.41
38806;BME280;25635;51.146;17.162;2023-09-07T06:58:45;101079.11;;;18.04;78.54
38806;BME280;25635;51.146;17.162;2023-09-07T07:01:12;101080.77;;;18.29;77.65
38806;BME280;25635;51.146;17.162;2023-09-07T07:03:38;101085.14;;;18.50;76.87
38806;BME280;25635;51.146;17.162;2023-09-07T07:06:04;101083.94;;;18.76;76.99
38806;BME280;25635;51.146;17.162;2023-09-07T07:08:31;101085.27;;;19.04;76.64
38806;BME280;25635;51.146;17.162;2023-09-07T07:10:58;101087.65;;;19.31;76.07
38806;BME280;25635;51.146;17.162;2023-09-07T07:13:25;101088.44;;;19.58;75.38
38806;BME280;25635;51.146;17.162;2023-09-07T07:15:52;101091.55;;;19.83;74.82
38806;BME280;25635;51.146;17.162;2023-09-07T07:18:18;101088.27;;;20.07;74.13
38806;BME280;25635;51.146;17.162;2023-09-07T07:20:45;101092.91;;;20.33;73.62
38806;BME280;25635;51.146;17.162;2023-09-07T07:23:12;101096.10;;;20.54;72.54
38806;BME280;25635;51.146;17.162;2023-09-07T07:25:41;101096.33;;;20.78;72.79
38806;BME280;25635;51.146;17.162;2023-09-07T07:28:08;101095.55;;;21.04;72.17
38806;BME280;25635;51.146;17.162;2023-09-07T07:30:35;101098.16;;;21.28;71.17
38806;BME280;25635;51.146;17.162;2023-09-07T07:33:09;101099.07;;;21.52;70.91
38806;BME280;25635;51.146;17.162;2023-09-07T07:35:38;101095.92;;;21.73;69.83
38806;BME280;25635;51.146;17.162;2023-09-07T07:38:04;101098.92;;;21.86;69.39
38806;BME280;25635;51.146;17.162;2023-09-07T07:40:32;101101.59;;;22.04;69.45
38806;BME280;25635;51.146;17.162;2023-09-07T07:42:59;101098.56;;;22.21;68.17
38806;BME280;25635;51.146;17.162;2023-09-07T07:45:25;101100.56;;;22.37;68.17
38806;BME280;25635;51.146;17.162;2023-09-07T07:47:52;101102.01;;;22.57;67.59
38806;BME280;25635;51.146;17.162;2023-09-07T07:50:19;101100.20;;;22.82;67.59
38806;BME280;25635;51.146;17.162;2023-09-07T07:52:46;101103.59;;;23.06;67.25
38806;BME280;25635;51.146;17.162;2023-09-07T07:55:12;101104.37;;;23.32;66.49
38806;BME280;25635;51.146;17.162;2023-09-07T07:57:39;101104.43;;;23.53;65.86
38806;BME280;25635;51.146;17.162;2023-09-07T08:00:05;101105.42;;;23.74;64.74
38806;BME280;25635;51.146;17.162;2023-09-07T08:02:33;101101.61;;;23.94;64.62
38806;BME280;25635;51.146;17.162;2023-09-07T08:04:59;101098.42;;;24.15;64.21
38806;BME280;25635;51.146;17.162;2023-09-07T08:07:26;101092.86;;;24.33;63.35
38806;BME280;25635;51.146;17.162;2023-09-07T08:09:54;101097.89;;;24.53;63.48
38806;BME280;25635;51.146;17.162;2023-09-07T08:12:20;101096.88;;;24.73;62.60
38806;BME280;25635;51.146;17.162;2023-09-07T08:14:47;101093.21;;;24.91;62.26
38806;BME280;25635;51.146;17.162;2023-09-07T08:17:13;101094.16;;;25.10;61.93
38806;BME280;25635;51.146;17.162;2023-09-07T08:19:40;101095.79;;;25.30;61.28
38806;BME280;25635;51.146;17.162;2023-09-07T08:22:06;101095.78;;;25.49;61.13
38806;BME280;25635;51.146;17.162;2023-09-07T08:24:35;101098.35;;;25.67;59.95
38806;BME280;25635;51.146;17.162;2023-09-07T08:27:01;101098.98;;;25.84;59.69
38806;BME280;25635;51.146;17.162;2023-09-07T08:29:28;101100.09;;;25.99;58.59
38806;BME280;25635;51.146;17.162;2023-09-07T08:31:58;101099.50;;;26.12;58.45
38806;BME280;25635;51.146;17.162;2023-09-07T08:34:25;101093.95;;;26.31;58.32
38806;BME280;25635;51.146;17.162;2023-09-07T08:36:52;101098.60;;;26.52;58.07
38806;BME280;25635;51.146;17.162;2023-09-07T08:39:20;101101.32;;;26.69;57.48
38806;BME280;25635;51.146;17.162;2023-09-07T08:41:46;101103.42;;;26.84;56.39
38806;BME280;25635;51.146;17.162;2023-09-07T08:44:15;101094.15;;;26.96;55.86
38806;BME280;25635;51.146;17.162;2023-09-07T08:46:42;101090.40;;;27.07;55.89
38806;BME280;25635;51.146;17.162;2023-09-07T08:49:09;101089.25;;;27.16;54.98
38806;BME280;25635;51.146;17.162;2023-09-07T08:51:37;101086.08;;;27.30;54.79
38806;BME280;25635;51.146;17.162;2023-09-07T08:54:04;101086.09;;;27.47;54.69
38806;BME280;25635;51.146;17.162;2023-09-07T08:56:31;101086.67;;;27.62;53.60
38806;BME280;25635;51.146;17.162;2023-09-07T08:58:59;101083.08;;;27.71;52.97
38806;BME280;25635;51.146;17.162;2023-09-07T09:01:25;101084.74;;;27.81;52.11
38806;BME280;25635;51.146;17.162;2023-09-07T09:03:52;101087.16;;;27.91;52.49
38806;BME280;25635;51.146;17.162;2023-09-07T09:06:20;101088.77;;;28.07;52.13
38806;BME280;25635;51.146;17.162;2023-09-07T09:08:54;101089.23;;;28.19;51.32
38806;BME280;25635;51.146;17.162;2023-09-07T09:11:21;101087.09;;;28.27;51.09
38806;BME280;25635;51.146;17.162;2023-09-07T09:13:48;101083.55;;;28.31;50.50
38806;BME280;25635;51.146;17.162;2023-09-07T09:16:15;101088.27;;;28.43;50.64
38806;BME280;25635;51.146;17.162;2023-09-07T09:18:51;101088.25;;;28.60;50.45
38806;BME280;25635;51.146;17.162;2023-09-07T09:21:22;101083.53;;;28.65;48.79
38806;BME280;25635;51.146;17.162;2023-09-07T09:23:50;101084.38;;;28.59;48.29
38806;BME280;25635;51.146;17.162;2023-09-07T09:26:17;101083.09;;;28.57;48.52
38806;BME280;25635;51.146;17.162;2023-09-07T09:28:44;101079.73;;;28.66;48.47
38806;BME280;25635;51.146;17.162;2023-09-07T09:31:11;101081.38;;;28.76;48.41
38806;BME280;25635;51.146;17.162;2023-09-07T09:33:41;101084.95;;;28.83;48.51
38806;BME280;25635;51.146;17.162;2023-09-07T09:36:08;101078.44;;;28.94;48.16
38806;BME280;25635;51.146;17.162;2023-09-07T09:38:35;101079.46;;;29.00;47.69
38806;BME280;25635;51.146;17.162;2023-09-07T09:41:02;101075.18;;;29.10;47.29
38806;BME280;25635;51.146;17.162;2023-09-07T09:43:31;101076.00;;;29.21;47.70
38806;BME280;25635;51.146;17.162;2023-09-07T09:45:58;101075.06;;;29.29;46.76
38806;BME280;25635;51.146;17.162;2023-09-07T09:48:26;101074.20;;;29.39;47.05
38806;BME280;25635;51.146;17.162;2023-09-07T09:50:53;101073.70;;;29.48;46.89
38806;BME280;25635;51.146;17.162;2023-09-07T09:53:20;101076.71;;;29.56;45.69
38806;BME280;25635;51.146;17.162;2023-09-07T09:55:50;101075.38;;;29.59;45.02
38806;BME280;25635;51.146;17.162;2023-09-07T09:58:18;101074.38;;;29.58;44.95
38806;BME280;25635;51.146;17.162;2023-09-07T10:00:46;101075.33;;;29.55;44.80
38806;BME280;25635;51.146;17.162;2023-09-07T10:03:20;101075.23;;;29.54;44.65
38806;BME280;25635;51.146;17.162;2023-09-07T10:05:50;101074.77;;;29.62;45.26
38806;BME280;25635;51.146;17.162;2023-09-07T10:08:17;101075.53;;;29.77;44.81
38806;BME280;25635;51.146;17.162;2023-09-07T10:10:48;101076.30;;;29.83;44.39
38806;BME280;25635;51.146;17.162;2023-09-07T10:13:15;101076.00;;;29.90;44.38
38806;BME280;25635;51.146;17.162;2023-09-07T10:15:43;101073.84;;;29.95;44.35
38806;BME280;25635;51.146;17.162;2023-09-07T10:18:11;101072.24;;;30.04;43.79
38806;BME280;25635;51.146;17.162;2023-09-07T10:20:53;101069.40;;;30.05;43.64
38806;BME280;25635;51.146;17.162;2023-09-07T10:23:20;101073.21;;;30.07;43.93
38806;BME280;25635;51.146;17.162;2023-09-07T10:25:47;101069.98;;;30.19;44.35
38806;BME280;25635;51.146;17.162;2023-09-07T10:28:24;101063.30;;;30.34;43.94
38806;BME280;25635;51.146;17.162;2023-09-07T10:33:36;101060.67;;;30.49;42.99
38806;BME280;25635;51.146;17.162;2023-09-07T10:36:03;101058.02;;;30.56;43.20
38806;BME280;25635;51.146;17.162;2023-09-07T10:38:33;101059.05;;;30.65;43.21
38806;BME280;25635;51.146;17.162;2023-09-07T10:41:01;101062.00;;;30.78;42.80
38806;BME280;25635;51.146;17.162;2023-09-07T10:43:28;101057.16;;;30.82;42.58
38806;BME280;25635;51.146;17.162;2023-09-07T10:45:55;101053.92;;;30.87;41.75
38806;BME280;25635;51.146;17.162;2023-09-07T10:48:25;101051.80;;;30.86;42.05
38806;BME280;25635;51.146;17.162;2023-09-07T10:50:51;101044.75;;;30.89;42.13
38806;BME280;25635;51.146;17.162;2023-09-07T10:55:54;101039.00;;;30.94;42.07
38806;BME280;25635;51.146;17.162;2023-09-07T10:58:25;101033.70;;;31.03;41.72
38806;BME280;25635;51.146;17.162;2023-09-07T11:00:53;101036.29;;;31.09;41.45
38806;BME280;25635;51.146;17.162;2023-09-07T11:03:20;101029.95;;;31.10;41.44
38806;BME280;25635;51.146;17.162;2023-09-07T11:05:46;101029.65;;;31.22;41.95
38806;BME280;25635;51.146;17.162;2023-09-07T11:08:14;101032.13;;;31.29;41.07
38806;BME280;25635;51.146;17.162;2023-09-07T11:10:41;101031.30;;;31.33;40.70
38806;BME280;25635;51.146;17.162;2023-09-07T11:13:09;101028.35;;;31.31;40.29
38806;BME280;25635;51.146;17.162;2023-09-07T11:15:35;101028.58;;;31.33;40.99
38806;BME280;25635;51.146;17.162;2023-09-07T11:18:06;101031.92;;;31.43;40.97
38806;BME280;25635;51.146;17.162;2023-09-07T11:20:33;101030.16;;;31.53;41.36
38806;BME280;25635;51.146;17.162;2023-09-07T11:23:00;101028.08;;;31.70;40.68
38806;BME280;25635;51.146;17.162;2023-09-07T11:25:33;101029.06;;;31.67;39.87
38806;BME280;25635;51.146;17.162;2023-09-07T11:27:59;101026.00;;;31.62;40.34
38806;BME280;25635;51.146;17.162;2023-09-07T11:30:26;101027.27;;;31.69;39.96
38806;BME280;25635;51.146;17.162;2023-09-07T11:32:59;101020.91;;;31.69;38.88
38806;BME280;25635;51.146;17.162;2023-09-07T11:35:26;101015.41;;;31.62;40.10
38806;BME280;25635;51.146;17.162;2023-09-07T11:37:53;101015.80;;;31.70;40.25
38806;BME280;25635;51.146;17.162;2023-09-07T11:40:20;101018.66;;;31.73;39.13
38806;BME280;25635;51.146;17.162;2023-09-07T11:42:47;101017.98;;;31.65;39.50
38806;BME280;25635;51.146;17.162;2023-09-07T11:45:13;101015.39;;;31.62;39.21
38806;BME280;25635;51.146;17.162;2023-09-07T11:47:40;101010.98;;;31.61;39.55
38806;BME280;25635;51.146;17.162;2023-09-07T11:50:10;101010.67;;;31.69;39.39
38806;BME280;25635;51.146;17.162;2023-09-07T11:52:36;101012.71;;;31.75;39.81
38806;BME280;25635;51.146;17.162;2023-09-07T11:55:03;101016.11;;;31.81;39.34
38806;BME280;25635;51.146;17.162;2023-09-07T11:57:30;101009.69;;;31.79;38.97
38806;BME280;25635;51.146;17.162;2023-09-07T11:59:56;101009.25;;;31.77;38.63
38806;BME280;25635;51.146;17.162;2023-09-07T12:02:23;101008.52;;;31.78;39.13
38806;BME280;25635;51.146;17.162;2023-09-07T12:04:49;101005.83;;;31.71;38.51
38806;BME280;25635;51.146;17.162;2023-09-07T12:07:16;101007.94;;;31.69;39.05
38806;BME280;25635;51.146;17.162;2023-09-07T12:09:42;101003.49;;;31.68;38.63
38806;BME280;25635;51.146;17.162;2023-09-07T12:12:09;100998.27;;;31.66;38.70
38806;BME280;25635;51.146;17.162;2023-09-07T12:14:37;101000.62;;;31.68;38.83
38806;BME280;25635;51.146;17.162;2023-09-07T12:17:03;101002.17;;;31.78;38.40
38806;BME280;25635;51.146;17.162;2023-09-07T12:19:30;101003.42;;;31.78;38.22
38806;BME280;25635;51.146;17.162;2023-09-07T12:21:56;100999.55;;;31.77;38.32
38806;BME280;25635;51.146;17.162;2023-09-07T12:24:23;100999.36;;;31.79;38.09
38806;BME280;25635;51.146;17.162;2023-09-07T12:26:50;101002.56;;;31.84;38.05
38806;BME280;25635;51.146;17.162;2023-09-07T12:29:16;101004.30;;;31.85;37.63
38806;BME280;25635;51.146;17.162;2023-09-07T12:31:43;100998.63;;;31.80;37.24
38806;BME280;25635;51.146;17.162;2023-09-07T12:34:11;100993.67;;;31.65;37.19
38806;BME280;25635;51.146;17.162;2023-09-07T12:36:38;100989.76;;;31.63;37.41
38806;BME280;25635;51.146;17.162;2023-09-07T12:39:04;100991.00;;;31.59;37.48
38806;BME280;25635;51.146;17.162;2023-09-07T12:41:32;100992.75;;;31.55;37.41
38806;BME280;25635;51.146;17.162;2023-09-07T12:43:58;100988.09;;;31.52;37.30
38806;BME280;25635;51.146;17.162;2023-09-07T12:46:25;100984.33;;;31.52;37.47
38806;BME280;25635;51.146;17.162;2023-09-07T12:48:51;100986.27;;;31.50;37.53